createdAt,value
2022-09-28T00:00:00.484Z,7.88
2022-09-28T00:02:28.104Z,8.07
2022-09-28T00:04:54.676Z,8.25
2022-09-28T00:07:21.123Z,8.35
2022-09-28T00:09:47.515Z,9.02
2022-09-28T00:12:14.155Z,9.02
2022-09-28T00:14:40.679Z,8.82
2022-09-28T00:17:08.310Z,9.40
2022-09-28T00:19:34.785Z,9.63
2022-09-28T00:22:01.181Z,10.52
2022-09-28T00:24:28.024Z,10.20
2022-09-28T00:26:55.398Z,10.80
2022-09-28T00:29:28.005Z,10.05
2022-09-28T00:32:00.017Z,11.20
2022-09-28T00:34:27.374Z,11.00
2022-09-28T00:36:53.763Z,10.93
2022-09-28T00:39:20.251Z,11.68
2022-09-28T00:41:47.028Z,11.50
2022-09-28T00:44:22.537Z,12.05
2022-09-28T00:46:50.780Z,12.07
2022-09-28T00:49:18.993Z,11.38
2022-09-28T00:51:47.236Z,12.00
2022-09-28T00:54:15.622Z,12.38
2022-09-28T00:56:45.258Z,13.20
2022-09-28T00:59:11.654Z,12.95
2022-09-28T01:01:38.129Z,13.90
2022-09-28T01:04:05.666Z,13.73
2022-09-28T01:06:33.450Z,14.25
2022-09-28T01:09:04.470Z,14.35
2022-09-28T01:11:32.137Z,14.70
2022-09-28T01:13:59.345Z,14.27
2022-09-28T01:16:38.571Z,14.57
2022-09-28T01:19:08.082Z,14.82
2022-09-28T01:21:42.330Z,15.40
2022-09-28T01:24:19.827Z,14.93
2022-09-28T01:26:59.734Z,15.23
2022-09-28T01:29:32.374Z,14.02
2022-09-28T01:32:09.174Z,14.95
2022-09-28T01:34:39.365Z,13.40
2022-09-28T01:37:08.949Z,14.30
2022-09-28T01:39:37.869Z,12.95
2022-09-28T01:42:12.072Z,14.02
2022-09-28T01:44:41.351Z,12.20
2022-09-28T01:47:09.370Z,12.98
2022-09-28T01:49:38.768Z,12.68
2022-09-28T01:52:10.751Z,12.57
2022-09-28T01:54:41.983Z,11.82
2022-09-28T01:57:08.393Z,12.07
2022-09-28T01:59:37.251Z,12.27
2022-09-28T02:02:06.325Z,12.77
2022-09-28T02:04:36.643Z,11.55
2022-09-28T02:07:13.032Z,11.88
2022-09-28T02:09:42.218Z,12.55
2022-09-28T02:12:19.590Z,12.02
2022-09-28T02:14:47.169Z,13.43
2022-09-28T02:17:16.169Z,12.48
2022-09-28T02:19:42.905Z,13.20
2022-09-28T02:22:23.254Z,13.77
2022-09-28T02:24:57.925Z,12.63
2022-09-28T02:27:35.492Z,12.93
2022-09-28T02:30:02.579Z,13.93
2022-09-28T02:32:30.089Z,14.15
2022-09-28T02:34:57.162Z,13.25
2022-09-28T02:37:23.728Z,13.68
2022-09-28T02:39:50.181Z,13.52
2022-09-28T02:42:33.885Z,13.98
2022-09-28T02:45:05.735Z,13.85
2022-09-28T02:47:41.125Z,12.40
2022-09-28T02:50:21.125Z,12.88
2022-09-28T02:52:50.614Z,12.25
2022-09-28T02:55:20.042Z,12.18
2022-09-28T02:57:53.126Z,10.15
2022-09-28T03:00:23.613Z,10.20
2022-09-28T03:02:57.605Z,9.73
2022-09-28T03:05:33.087Z,9.00
2022-09-28T03:08:00.547Z,8.60
2022-09-28T03:10:36.195Z,8.00
2022-09-28T03:13:03.417Z,7.35
2022-09-28T03:15:31.087Z,5.97
2022-09-28T03:17:58.013Z,5.57
2022-09-28T03:20:24.839Z,5.35
2022-09-28T03:23:12.345Z,5.05
2022-09-28T03:25:37.605Z,6.05
2022-09-28T03:28:03.979Z,5.38
2022-09-28T03:30:30.367Z,4.90
2022-09-28T03:32:58.327Z,5.53
2022-09-28T03:35:24.759Z,5.60
2022-09-28T03:37:54.327Z,5.18
2022-09-28T03:40:20.773Z,6.07
2022-09-28T03:42:47.321Z,6.88
2022-09-28T03:45:13.728Z,6.20
2022-09-28T03:47:40.140Z,7.03
2022-09-28T03:50:06.975Z,6.63
2022-09-28T03:52:33.314Z,7.25
2022-09-28T03:54:59.692Z,7.90
2022-09-28T03:57:26.123Z,7.38
2022-09-28T03:59:52.480Z,8.30
2022-09-28T04:02:18.991Z,8.55
2022-09-28T04:04:47.788Z,7.38
2022-09-28T04:07:14.196Z,9.00
2022-09-28T04:09:40.618Z,9.52
2022-09-28T04:12:07.194Z,8.88
2022-09-28T04:14:33.660Z,8.20
2022-09-28T04:17:00.139Z,8.88
2022-09-28T04:19:26.926Z,8.50
2022-09-28T04:21:53.427Z,9.00
2022-09-28T04:24:20.376Z,10.13
2022-09-28T04:26:46.865Z,10.65
2022-09-28T04:29:16.295Z,10.10
2022-09-28T04:31:44.516Z,9.63
2022-09-28T04:34:11.812Z,10.07
2022-09-28T04:36:38.511Z,10.50
2022-09-28T04:39:05.465Z,12.10
2022-09-28T04:41:31.889Z,13.35
2022-09-28T04:43:58.397Z,13.80
2022-09-28T04:46:24.797Z,13.60
2022-09-28T04:48:51.154Z,14.65
2022-09-28T04:51:17.609Z,15.07
2022-09-28T04:53:44.022Z,16.42
2022-09-28T04:56:14.789Z,14.43
2022-09-28T04:58:41.659Z,18.17
2022-09-28T05:01:12.226Z,15.88
2022-09-28T05:03:38.977Z,15.93
2022-09-28T05:06:07.005Z,16.42
2022-09-28T05:08:35.307Z,17.02
2022-09-28T05:11:03.713Z,16.55
2022-09-28T05:13:30.840Z,16.63
2022-09-28T05:16:01.776Z,16.88
2022-09-28T05:20:57.258Z,18.73
2022-09-28T05:23:23.680Z,17.30
2022-09-28T05:25:51.075Z,17.58
2022-09-28T05:28:24.158Z,18.40
2022-09-28T05:30:50.717Z,17.58
2022-09-28T05:33:17.106Z,16.40
2022-09-28T05:35:43.699Z,16.92
2022-09-28T05:38:10.128Z,15.52
2022-09-28T05:40:36.573Z,16.83
2022-09-28T05:43:03.193Z,17.65
2022-09-28T05:45:29.812Z,18.98
2022-09-28T05:47:56.861Z,18.30
2022-09-28T05:50:23.268Z,18.40
2022-09-28T05:53:02.816Z,17.75
2022-09-28T05:55:29.825Z,18.40
2022-09-28T05:57:59.981Z,19.02
2022-09-28T06:00:27.088Z,18.70
2022-09-28T06:02:57.229Z,18.52
2022-09-28T06:05:24.536Z,17.95
2022-09-28T06:07:50.984Z,18.42
2022-09-28T06:10:17.363Z,17.55
2022-09-28T06:12:44.892Z,19.17
2022-09-28T06:15:11.337Z,19.80
2022-09-28T06:17:37.773Z,19.38
2022-09-28T06:20:04.290Z,19.10
2022-09-28T06:22:30.712Z,18.50
2022-09-28T06:24:57.142Z,17.63
2022-09-28T06:27:23.494Z,18.02
2022-09-28T06:29:49.993Z,17.85
2022-09-28T06:32:16.371Z,17.20
2022-09-28T06:34:42.885Z,16.42
2022-09-28T06:37:09.255Z,17.25
2022-09-28T06:39:38.079Z,17.42
2022-09-28T06:42:05.099Z,15.00
2022-09-28T06:44:32.332Z,14.27
2022-09-28T06:46:58.836Z,14.07
2022-09-28T06:49:27.789Z,14.15
2022-09-28T06:51:54.203Z,13.55
2022-09-28T06:54:25.607Z,13.00
2022-09-28T06:56:55.120Z,13.80
2022-09-28T06:59:21.575Z,14.48
2022-09-28T07:01:47.995Z,13.85
2022-09-28T07:04:14.671Z,13.75
2022-09-28T07:06:46.094Z,13.80
2022-09-28T07:09:26.533Z,13.00
2022-09-28T07:11:58.471Z,13.32
2022-09-28T07:14:44.752Z,12.10
2022-09-28T07:17:14.225Z,12.65
2022-09-28T07:19:41.139Z,11.20
2022-09-28T07:22:07.760Z,11.15
2022-09-28T07:24:34.270Z,11.65
2022-09-28T07:27:05.136Z,9.98
2022-09-28T07:29:31.561Z,10.00
2022-09-28T07:31:57.938Z,8.60
2022-09-28T07:34:24.362Z,7.15
2022-09-28T07:36:51.922Z,6.55
2022-09-28T07:39:18.368Z,6.38
2022-09-28T07:41:44.741Z,6.25
2022-09-28T07:44:11.226Z,6.53
2022-09-28T07:46:37.794Z,5.22
2022-09-28T07:49:09.869Z,5.55
2022-09-28T07:51:38.680Z,4.80
2022-09-28T07:54:06.602Z,4.78
2022-09-28T07:56:34.106Z,4.28
2022-09-28T07:59:00.665Z,5.15
2022-09-28T08:01:27.143Z,4.43
2022-09-28T08:03:56.377Z,4.65
2022-09-28T08:06:23.306Z,4.43
2022-09-28T08:08:50.348Z,4.28
2022-09-28T08:11:18.048Z,3.72
2022-09-28T08:13:45.765Z,4.53
2022-09-28T08:16:12.594Z,3.80
2022-09-28T08:18:39.092Z,4.50
2022-09-28T08:21:24.700Z,3.80
2022-09-28T08:23:51.300Z,3.50
2022-09-28T08:26:17.748Z,3.97
2022-09-28T08:28:45.185Z,3.17
2022-09-28T08:31:11.871Z,4.15
2022-09-28T08:33:38.581Z,3.28
2022-09-28T08:36:06.037Z,3.03
2022-09-28T08:38:32.766Z,3.40
2022-09-28T08:41:04.705Z,2.72
2022-09-28T08:43:31.268Z,2.80
2022-09-28T08:45:59.186Z,2.80
2022-09-28T08:49:06.631Z,2.30
2022-09-28T08:51:45.490Z,3.40
2022-09-28T08:54:18.731Z,2.40
2022-09-28T08:56:49.122Z,2.10
2022-09-28T08:59:17.692Z,2.05
2022-09-28T09:01:57.764Z,2.20
2022-09-28T09:04:24.681Z,2.13
2022-09-28T09:07:10.881Z,2.63
2022-09-28T09:09:57.515Z,2.22
2022-09-28T09:12:27.068Z,2.65
2022-09-28T09:15:02.726Z,2.65
2022-09-28T09:17:38.786Z,2.20
2022-09-28T09:20:08.449Z,2.13
2022-09-28T09:22:34.827Z,2.30
2022-09-28T09:25:18.143Z,2.10
2022-09-28T09:28:03.360Z,2.20
2022-09-28T09:30:35.215Z,2.17
2022-09-28T09:33:24.227Z,2.42
2022-09-28T09:36:12.560Z,2.35
2022-09-28T09:38:45.737Z,2.03
2022-09-28T09:41:15.785Z,2.05
2022-09-28T09:43:50.665Z,1.98
2022-09-28T09:46:26.836Z,1.98
2022-09-28T09:48:56.895Z,1.70
2022-09-28T09:51:26.514Z,1.85
2022-09-28T09:53:57.344Z,1.80
2022-09-28T09:56:28.300Z,1.67
2022-09-28T09:58:57.451Z,1.38
2022-09-28T10:01:30.785Z,1.33
2022-09-28T10:03:59.043Z,1.40
2022-09-28T10:06:28.021Z,1.40
2022-09-28T10:09:05.739Z,2.40
2022-09-28T10:11:36.216Z,2.08
2022-09-28T10:14:07.756Z,2.45
2022-09-28T10:16:34.762Z,1.60
2022-09-28T10:19:01.392Z,1.80
2022-09-28T10:21:29.168Z,1.70
2022-09-28T10:23:57.319Z,1.98
2022-09-28T10:26:35.502Z,2.70
2022-09-28T10:29:05.407Z,2.40
2022-09-28T10:31:42.558Z,2.53
2022-09-28T10:34:14.255Z,2.35
2022-09-28T10:36:46.814Z,2.38
2022-09-28T10:39:42.434Z,2.88
2022-09-28T10:42:10.233Z,2.20
2022-09-28T10:44:51.199Z,1.75
2022-09-28T10:47:19.430Z,1.92
2022-09-28T10:49:48.578Z,1.42
2022-09-28T10:52:30.068Z,1.60
2022-09-28T10:54:56.768Z,1.67
2022-09-28T10:57:33.360Z,1.48
2022-09-28T10:59:59.922Z,1.77
2022-09-28T11:02:30.379Z,1.90
2022-09-28T11:05:01.895Z,1.55
2022-09-28T11:07:32.593Z,1.55
2022-09-28T11:10:00.220Z,1.60
2022-09-28T11:12:37.139Z,1.50
2022-09-28T11:15:06.262Z,1.95
2022-09-28T11:17:41.005Z,1.85
2022-09-28T11:20:28.215Z,2.50
2022-09-28T11:22:59.141Z,1.98
2022-09-28T11:25:30.355Z,1.92
2022-09-28T11:28:01.738Z,2.42
2022-09-28T11:30:28.341Z,2.28
2022-09-28T11:33:00.957Z,2.35
2022-09-28T11:35:37.669Z,1.65
2022-09-28T11:38:14.191Z,1.63
2022-09-28T11:40:50.625Z,2.00
2022-09-28T11:43:35.688Z,1.33
2022-09-28T11:46:22.417Z,1.60
2022-09-28T11:48:55.162Z,0.90
2022-09-28T11:51:24.549Z,1.10
2022-09-28T11:54:01.608Z,0.80
2022-09-28T11:56:33.849Z,1.20
2022-09-28T11:59:04.271Z,1.23
2022-09-28T12:01:37.820Z,0.90
2022-09-28T12:04:08.779Z,1.08
2022-09-28T12:06:39.632Z,0.70
2022-09-28T12:09:26.497Z,0.88
2022-09-28T12:11:56.454Z,1.00
2022-09-28T12:14:31.270Z,0.80
2022-09-28T12:17:08.239Z,0.60
2022-09-28T12:19:49.139Z,0.50
2022-09-28T12:22:23.037Z,0.70
2022-09-28T12:24:51.029Z,0.80
2022-09-28T12:27:28.039Z,0.65
2022-09-28T12:30:19.486Z,0.57
2022-09-28T12:32:46.069Z,0.70
2022-09-28T12:35:20.105Z,0.70
2022-09-28T12:37:54.649Z,0.60
2022-09-28T12:40:21.627Z,0.55
2022-09-28T12:42:53.124Z,0.63
2022-09-28T12:46:07.082Z,0.70
2022-09-28T12:48:53.534Z,0.43
2022-09-28T12:51:36.050Z,0.50
2022-09-28T12:54:21.150Z,0.70
2022-09-28T12:56:56.949Z,0.77
2022-09-28T12:59:23.649Z,0.50
2022-09-28T13:01:57.798Z,0.65
2022-09-28T13:04:35.234Z,0.70
2022-09-28T13:07:07.859Z,0.60
2022-09-28T13:09:41.580Z,0.70
2022-09-28T13:12:25.956Z,0.60
2022-09-28T13:15:05.791Z,0.85
2022-09-28T13:17:51.755Z,0.70
2022-09-28T13:20:25.157Z,0.60
2022-09-28T13:25:18.950Z,0.80
2022-09-28T13:27:52.483Z,0.50
2022-09-28T13:30:19.380Z,0.50
2022-09-28T13:32:47.020Z,0.43
2022-09-28T13:35:20.500Z,0.35
2022-09-28T13:40:13.976Z,0.40
2022-09-28T13:42:47.462Z,0.32
2022-09-28T13:47:54.189Z,0.50
2022-09-28T13:50:23.579Z,0.38
2022-09-28T13:53:02.862Z,0.30
2022-09-28T13:55:32.964Z,0.40
2022-09-28T13:58:04.550Z,0.40
2022-09-28T14:00:51.396Z,0.40
2022-09-28T14:03:25.676Z,0.40
2022-09-28T14:06:06.203Z,0.60
2022-09-28T14:09:04.966Z,0.60
2022-09-28T14:11:34.893Z,0.40
2022-09-28T14:14:01.313Z,0.60
2022-09-28T14:16:31.183Z,0.63
2022-09-28T14:19:16.936Z,0.80
2022-09-28T14:21:43.296Z,1.23
2022-09-28T14:24:13.263Z,0.50
2022-09-28T14:26:52.566Z,0.55
2022-09-28T14:29:29.162Z,0.60
2022-09-28T14:31:56.936Z,0.50
2022-09-28T14:34:34.313Z,0.60
2022-09-28T14:37:20.408Z,0.65
2022-09-28T14:40:05.807Z,0.90
2022-09-28T14:42:32.650Z,0.60
2022-09-28T14:45:06.081Z,0.43
2022-09-28T14:47:52.468Z,0.40
2022-09-28T14:50:29.332Z,0.30
2022-09-28T14:52:57.089Z,0.30
2022-09-28T14:55:28.315Z,0.30
2022-09-28T14:57:58.896Z,0.40
2022-09-28T15:00:27.181Z,0.40
2022-09-28T15:02:55.181Z,0.50
2022-09-28T15:05:27.961Z,0.40
2022-09-28T15:07:55.116Z,0.40
2022-09-28T15:10:27.517Z,0.40
2022-09-28T15:12:56.089Z,0.40
2022-09-28T15:15:25.698Z,0.40
2022-09-28T15:17:56.094Z,0.50
2022-09-28T15:20:30.022Z,0.60
2022-09-28T15:22:58.396Z,0.47
2022-09-28T15:25:26.411Z,0.50
2022-09-28T15:27:54.228Z,0.40
2022-09-28T15:30:29.803Z,0.40
2022-09-28T15:33:16.861Z,0.50
2022-09-28T15:35:45.815Z,0.50
2022-09-28T15:38:14.628Z,0.40
2022-09-28T15:40:41.563Z,0.30
2022-09-28T15:43:26.869Z,0.25
2022-09-28T15:46:04.750Z,0.30
2022-09-28T15:48:37.373Z,0.40
2022-09-28T15:51:11.061Z,0.60
2022-09-28T15:53:58.337Z,1.13
2022-09-28T15:56:25.150Z,0.40
2022-09-28T15:59:10.668Z,0.68
2022-09-28T16:01:38.431Z,0.50
2022-09-28T16:04:27.761Z,0.47
2022-09-28T16:07:17.418Z,0.50
2022-09-28T16:09:54.844Z,0.80
2022-09-28T16:12:21.889Z,0.90
2022-09-28T16:14:49.735Z,0.70
2022-09-28T16:17:29.924Z,0.68
2022-09-28T16:19:56.376Z,0.90
2022-09-28T16:22:26.743Z,1.10
2022-09-28T16:24:56.476Z,0.90
2022-09-28T16:27:25.950Z,0.80
2022-09-28T16:30:05.187Z,0.77
2022-09-28T16:32:32.149Z,1.40
2022-09-28T16:35:13.799Z,1.40
2022-09-28T16:37:43.176Z,1.00
2022-09-28T16:40:10.300Z,1.35
2022-09-28T16:42:37.097Z,1.00
2022-09-28T16:45:05.264Z,1.00
2022-09-28T16:47:35.104Z,1.42
2022-09-28T16:50:02.551Z,1.08
2022-09-28T16:52:47.695Z,0.90
2022-09-28T16:55:39.671Z,1.50
2022-09-28T16:58:04.755Z,1.25
2022-09-28T17:00:31.905Z,1.27
2022-09-28T17:02:58.600Z,0.75
2022-09-28T17:05:25.533Z,0.90
2022-09-28T17:07:59.460Z,1.13
2022-09-28T17:10:31.836Z,1.15
2022-09-28T17:12:59.141Z,1.08
2022-09-28T17:15:26.165Z,1.10
2022-09-28T17:17:52.679Z,0.90
2022-09-28T17:20:22.553Z,1.10
2022-09-28T17:22:49.713Z,1.00
2022-09-28T17:25:16.506Z,1.08
2022-09-28T17:27:45.353Z,0.90
2022-09-28T17:30:13.332Z,1.55
2022-09-28T17:32:44.949Z,1.20
2022-09-28T17:35:24.053Z,1.77
2022-09-28T17:37:51.660Z,1.20
2022-09-28T17:40:21.179Z,1.10
2022-09-28T17:42:48.007Z,1.30
2022-09-28T17:45:15.815Z,1.30
2022-09-28T17:47:42.870Z,1.30
2022-09-28T17:50:21.128Z,1.42
2022-09-28T17:52:51.996Z,1.38
2022-09-28T17:55:22.830Z,1.67
2022-09-28T17:57:49.859Z,1.80
2022-09-28T18:00:17.274Z,1.88
2022-09-28T18:02:44.466Z,2.33
2022-09-28T18:05:14.856Z,2.40
2022-09-28T18:07:47.275Z,2.60
2022-09-28T18:10:15.574Z,2.85
2022-09-28T18:12:43.307Z,2.95
2022-09-28T18:15:10.758Z,3.45
2022-09-28T18:17:37.684Z,2.80
2022-09-28T18:20:05.436Z,2.92
2022-09-28T18:22:32.023Z,3.10
2022-09-28T18:24:58.703Z,2.85
2022-09-28T18:27:25.332Z,2.30
2022-09-28T18:29:52.018Z,2.45
2022-09-28T18:32:18.836Z,2.65
2022-09-28T18:34:45.411Z,3.65
2022-09-28T18:37:14.911Z,3.50
2022-09-28T18:39:41.624Z,3.38
2022-09-28T18:42:08.284Z,2.95
2022-09-28T18:44:34.867Z,3.35
2022-09-28T18:47:02.466Z,3.10
2022-09-28T18:49:30.266Z,3.90
2022-09-28T18:51:56.801Z,4.43
2022-09-28T18:54:23.794Z,3.90
2022-09-28T18:56:53.713Z,4.15
2022-09-28T18:59:20.199Z,3.72
2022-09-28T19:01:46.860Z,4.00
2022-09-28T19:04:13.835Z,3.35
2022-09-28T19:06:41.821Z,3.75
2022-09-28T19:09:12.370Z,3.92
2022-09-28T19:11:38.980Z,4.28
2022-09-28T19:14:05.582Z,4.72
2022-09-28T19:16:34.150Z,5.40
2022-09-28T19:19:03.016Z,4.47
2022-09-28T19:21:30.061Z,4.55
2022-09-28T19:23:56.676Z,4.65
2022-09-28T19:26:24.830Z,4.60
2022-09-28T19:28:51.490Z,5.57
2022-09-28T19:31:18.161Z,8.05
2022-09-28T19:33:48.182Z,9.00
2022-09-28T19:36:18.893Z,8.25
2022-09-28T19:38:45.725Z,7.22
2022-09-28T19:41:13.194Z,7.43
2022-09-28T19:43:42.247Z,6.30
2022-09-28T19:46:08.684Z,6.05
2022-09-28T19:48:35.440Z,6.20
2022-09-28T19:51:03.334Z,6.53
2022-09-28T19:53:31.132Z,6.10
2022-09-28T19:55:58.247Z,6.30
2022-09-28T19:58:25.714Z,6.65
2022-09-28T20:00:52.157Z,6.03
2022-09-28T20:03:18.756Z,5.72
2022-09-28T20:05:46.051Z,6.30
2022-09-28T20:08:13.272Z,6.22
2022-09-28T20:10:39.629Z,6.53
2022-09-28T20:13:06.062Z,5.70
2022-09-28T20:15:35.251Z,6.07
2022-09-28T20:18:01.700Z,6.38
2022-09-28T20:20:28.317Z,7.05
2022-09-28T20:22:55.123Z,6.57
2022-09-28T20:25:21.592Z,7.30
2022-09-28T20:27:47.987Z,6.55
2022-09-28T20:30:14.506Z,7.47
2022-09-28T20:32:40.919Z,6.75
2022-09-28T20:35:07.653Z,6.78
2022-09-28T20:37:34.107Z,6.95
2022-09-28T20:40:01.790Z,6.70
2022-09-28T20:42:28.902Z,6.30
2022-09-28T20:44:55.273Z,6.80
2022-09-28T20:47:21.729Z,5.28
2022-09-28T20:49:48.113Z,5.90
2022-09-28T20:52:14.543Z,7.00
2022-09-28T20:54:41.011Z,5.18
2022-09-28T20:57:17.627Z,6.70
2022-09-28T20:59:44.632Z,5.68
2022-09-28T21:02:12.385Z,5.63
2022-09-28T21:04:40.143Z,5.40
2022-09-28T21:07:06.810Z,5.93
2022-09-28T21:09:33.342Z,6.32
2022-09-28T21:11:59.951Z,5.97
2022-09-28T21:14:26.759Z,5.60
2022-09-28T21:16:53.189Z,5.55
2022-09-28T21:19:20.702Z,6.63
2022-09-28T21:21:47.212Z,6.45
2022-09-28T21:24:13.558Z,6.90
2022-09-28T21:26:39.917Z,7.25
2022-09-28T21:29:07.373Z,7.13
2022-09-28T21:31:38.018Z,7.82
2022-09-28T21:34:04.799Z,7.95
2022-09-28T21:36:31.472Z,7.38
2022-09-28T21:38:58.008Z,7.70
2022-09-28T21:41:24.763Z,6.45
2022-09-28T21:43:51.277Z,6.03
2022-09-28T21:46:17.769Z,7.10
2022-09-28T21:48:44.314Z,6.70
2022-09-28T21:51:13.072Z,7.30
2022-09-28T21:53:39.533Z,7.03
2022-09-28T21:56:07.290Z,6.85
2022-09-28T21:58:34.885Z,6.70
2022-09-28T22:01:02.636Z,7.65
2022-09-28T22:03:29.370Z,7.43
2022-09-28T22:05:55.793Z,7.25
2022-09-28T22:08:22.565Z,7.60
2022-09-28T22:11:18.472Z,7.45
2022-09-28T22:13:46.090Z,6.65
2022-09-28T22:16:13.550Z,6.28
2022-09-28T22:18:40.041Z,6.60
2022-09-28T22:21:13.442Z,6.78
2022-09-28T22:23:40.301Z,6.05
2022-09-28T22:26:10.831Z,6.05
2022-09-28T22:28:37.712Z,6.20
2022-09-28T22:31:04.416Z,6.75
2022-09-28T22:33:30.856Z,7.10
2022-09-28T22:35:57.264Z,6.55
2022-09-28T22:38:24.540Z,7.10
2022-09-28T22:40:52.059Z,7.18
2022-09-28T22:43:18.936Z,6.97
2022-09-28T22:45:45.355Z,7.72
2022-09-28T22:48:11.842Z,7.97
2022-09-28T22:50:38.988Z,6.88
2022-09-28T22:53:06.194Z,7.82
2022-09-28T22:55:35.583Z,7.40
2022-09-28T22:58:01.955Z,7.78
2022-09-28T23:00:28.542Z,6.97
2022-09-28T23:02:54.931Z,7.03
2022-09-28T23:05:21.377Z,7.30
2022-09-28T23:07:47.808Z,6.50
2022-09-28T23:10:14.265Z,6.15
2022-09-28T23:12:40.624Z,7.18
2022-09-28T23:15:07.340Z,6.63
2022-09-28T23:17:33.969Z,6.70
2022-09-28T23:20:00.400Z,6.20
2022-09-28T23:22:26.894Z,6.50
2022-09-28T23:24:53.277Z,6.50
2022-09-28T23:27:19.709Z,6.30
2022-09-28T23:29:49.157Z,5.50
2022-09-28T23:32:19.090Z,6.38
2022-09-28T23:34:45.568Z,6.45
2022-09-28T23:37:11.969Z,6.13
2022-09-28T23:39:38.427Z,6.72
2022-09-28T23:42:04.836Z,6.65
2022-09-28T23:44:34.208Z,6.90
2022-09-28T23:47:00.717Z,6.35
2022-09-28T23:49:27.173Z,6.43
2022-09-28T23:51:56.058Z,7.07
2022-09-28T23:54:22.483Z,5.55
2022-09-28T23:56:48.870Z,6.47
2022-09-28T23:59:15.229Z,6.15
